Terminal Aerodrome Forecast
Issued by NWS

Home | Current Version | Previous Version | Text Only | Print | Product List | Glossary On
Versions: 1 2 3 4 5 6 7 8 9 10 11 12 13 14 15 16 17
000
FTUS45 KTFX 291736
TAFCTB
TAF
KCTB 291736Z 2918/3018 16014KT 3SM FU BKN025
     FM291900 18020G25KT 5SM FU SCT050 BKN150
      TEMPO 2919/2922 -SHRA BKN050
     FM292300 24020G30KT P6SM BKN140
     FM300400 27011KT 4SM FU SCT140 BKN250
     FM301600 24020G30KT 6SM FU SCT140 SCT250=

USA.gov is the U.S. government's official web portal to all federal, state and local government web resources and services.